Startpagina
METAR-TAF:

METAR-TAF

Vliegvelden :

Mauritius, Mauritius

breedte: 20-26S, lengte: 057-40E, hoogte: 55 m

Actueel weer

Dit bericht is 33 minuten geleden gemaakt, om 22:00 UTC
Wind 3 kt uit het oostzuidoosten
Temperatuur 24°C
Vochtigheid 74%
Druk 1019 hPa
Zicht 10 km of meer
Verspreide wolken op 1800 ft
Gebroken wolken op 5000 ft

METAR: FIMP 212200Z 11003KT 9999 SCT018 BKN050 24/19 Q1019

Tijdstip: 02:33 (22:33 UTC)

Verwachting

Dit bericht is 5 uur en het 23 minuten geleden gemaakt, om 17:10 UTC
Verwachting geldig van 21 om 18 UTC tot 23 om 00 UTC
Wind 5 kt uit het oosten
Zicht 10 km of meer
Verspreide wolken op 1700 ft
Gebroken wolken op 5000 ft

TAF: FIMP 211710Z 2118/2300 08005KT 9999 SCT017 BKN050

Waarnemingen en weersverwachtingen van meer dan 4000 vliegvelden (METAR en TAF).

De beschikbare stations zijn de gele en rode punten op de kaart.

Ga met uw muis naar het station om de naam te zien.

Klik dan om waarnemingen en weersverwachtingen te zien.

kaart wijzigen: klik op de groene knoppen met een zwart kruis om in te zoomen, op de groene knop met een streepje om uit te zoomen of op de groene pijlen voor aangrenzende kaarten.


METAR-TAF: